createdAt,value
2018-12-19T00:01:48.073Z,0.56
2018-12-19T00:04:17.901Z,0.56
2018-12-19T00:06:48.195Z,0.62
2018-12-19T00:09:18.179Z,0.58
2018-12-19T00:11:48.024Z,0.58
2018-12-19T00:14:18.025Z,0.53
2018-12-19T00:16:48.025Z,0.60
2018-12-19T00:19:17.887Z,0.52
2018-12-19T00:21:47.773Z,0.57
2018-12-19T00:24:17.925Z,0.56
2018-12-19T00:26:47.804Z,0.53
2018-12-19T00:29:17.702Z,0.54
2018-12-19T00:31:47.605Z,0.45
2018-12-19T00:34:17.461Z,0.47
2018-12-19T00:36:47.765Z,0.42
2018-12-19T00:39:17.619Z,0.34
2018-12-19T00:41:47.619Z,0.38
2018-12-19T00:44:17.518Z,0.37
2018-12-19T00:46:47.501Z,0.38
2018-12-19T00:49:17.331Z,0.45
2018-12-19T00:51:47.248Z,0.47
2018-12-19T00:54:17.385Z,0.49
2018-12-19T00:56:47.265Z,0.51
2018-12-19T00:59:17.114Z,0.45
2018-12-19T01:01:47.057Z,0.44
2018-12-19T01:04:16.905Z,0.44
2018-12-19T01:06:46.819Z,0.48
2018-12-19T01:09:16.715Z,0.48
2018-12-19T01:11:46.623Z,0.53
2018-12-19T01:14:16.465Z,0.52
2018-12-19T01:16:46.430Z,0.53
2018-12-19T01:19:16.290Z,0.50
2018-12-19T01:21:46.145Z,0.49
2018-12-19T01:24:16.125Z,0.49
2018-12-19T01:26:45.993Z,0.48
2018-12-19T01:29:16.089Z,0.50
2018-12-19T01:31:45.988Z,0.43
2018-12-19T01:34:15.845Z,0.35
2018-12-19T01:36:45.723Z,0.26
2018-12-19T01:39:15.566Z,0.33
2018-12-19T01:41:45.514Z,0.32
2018-12-19T01:44:15.369Z,0.31
2018-12-19T01:46:45.425Z,0.36
2018-12-19T01:49:15.225Z,0.38
2018-12-19T01:51:45.182Z,0.40
2018-12-19T01:54:15.570Z,0.40
2018-12-19T01:56:45.475Z,0.41
2018-12-19T01:59:15.392Z,0.38
2018-12-19T02:01:45.329Z,0.36
2018-12-19T02:04:15.835Z,0.33
2018-12-19T02:06:46.181Z,0.32
2018-12-19T02:09:16.020Z,0.32
2018-12-19T02:11:46.426Z,0.31
2018-12-19T02:14:16.930Z,0.31
2018-12-19T02:16:46.796Z,0.23
2018-12-19T02:19:16.748Z,0.26
2018-12-19T02:21:46.625Z,0.25
2018-12-19T02:24:16.941Z,0.22
2018-12-19T02:26:47.373Z,0.21
2018-12-19T02:29:17.309Z,0.14
2018-12-19T02:31:47.213Z,0.20
2018-12-19T02:34:17.519Z,0.19
2018-12-19T02:36:47.358Z,0.15
2018-12-19T02:39:18.129Z,0.12
2018-12-19T02:41:48.081Z,0.07
2018-12-19T02:44:17.949Z,0.14
2018-12-19T02:46:48.593Z,-0.04
2018-12-19T02:49:18.951Z,0.01
2018-12-19T02:51:48.823Z,-0.19
2018-12-19T02:54:19.239Z,-0.21
2018-12-19T02:56:49.569Z,-0.21
2018-12-19T02:59:19.429Z,-0.21
2018-12-19T03:01:49.291Z,-0.16
2018-12-19T03:04:20.113Z,-0.08
2018-12-19T03:06:50.001Z,-0.17
2018-12-19T03:09:19.865Z,-0.14
2018-12-19T03:11:49.822Z,-0.14
2018-12-19T03:14:19.698Z,-0.15
2018-12-19T03:16:49.521Z,-0.13
2018-12-19T03:19:19.494Z,-0.13
2018-12-19T03:21:49.377Z,-0.14
2018-12-19T03:24:19.265Z,-0.13
2018-12-19T03:26:49.182Z,-0.06
2018-12-19T03:29:19.104Z,0.02
2018-12-19T03:31:48.978Z,0.07
2018-12-19T03:34:18.833Z,0.10
2018-12-19T03:36:48.736Z,0.16
2018-12-19T03:39:18.577Z,0.19
2018-12-19T03:41:48.513Z,0.22
2018-12-19T03:44:18.401Z,0.20
2018-12-19T03:46:48.341Z,0.19
2018-12-19T03:49:18.892Z,0.23
2018-12-19T03:51:49.075Z,0.17
2018-12-19T03:54:19.174Z,0.04
2018-12-19T03:56:49.557Z,0.08
2018-12-19T03:59:19.405Z,0.11
2018-12-19T04:01:49.859Z,0.11
2018-12-19T04:04:19.714Z,0.14
2018-12-19T04:06:49.585Z,0.07
2018-12-19T04:09:19.439Z,-0.07
2018-12-19T04:11:49.347Z,-0.04
2018-12-19T04:14:19.293Z,0.04
2018-12-19T04:16:49.177Z,0.12
2018-12-19T04:19:19.012Z,0.14
2018-12-19T04:21:49.490Z,0.09
2018-12-19T04:24:19.347Z,0.15
2018-12-19T04:26:49.346Z,0.19
2018-12-19T04:29:19.188Z,0.26
2018-12-19T04:31:49.080Z,0.24
2018-12-19T04:34:18.915Z,0.23
2018-12-19T04:36:49.736Z,0.27
2018-12-19T04:39:19.643Z,0.26
2018-12-19T04:41:49.636Z,0.25
2018-12-19T04:44:19.489Z,0.29
2018-12-19T04:46:49.377Z,0.27
2018-12-19T04:49:19.646Z,0.27
2018-12-19T04:51:49.519Z,0.29
2018-12-19T04:54:19.342Z,0.32
2018-12-19T04:56:49.183Z,0.32
2018-12-19T04:59:19.035Z,0.31
2018-12-19T05:01:48.923Z,0.32
2018-12-19T05:04:19.276Z,0.37
2018-12-19T05:06:49.835Z,0.41
2018-12-19T05:09:19.805Z,0.42
2018-12-19T05:11:49.773Z,0.44
2018-12-19T05:14:19.989Z,0.48
2018-12-19T05:16:49.865Z,0.48
2018-12-19T05:19:20.597Z,0.48
2018-12-19T05:21:50.917Z,0.40
2018-12-19T05:24:20.862Z,0.48
2018-12-19T05:26:50.789Z,0.49
2018-12-19T05:29:20.691Z,0.55
2018-12-19T05:31:50.526Z,0.60
2018-12-19T05:34:20.489Z,0.62
2018-12-19T05:36:50.405Z,0.61
2018-12-19T05:39:20.282Z,0.59
2018-12-19T05:41:50.186Z,0.54
2018-12-19T05:44:20.053Z,0.52
2018-12-19T05:46:49.925Z,0.60
2018-12-19T05:49:20.029Z,0.64
2018-12-19T05:51:49.901Z,0.67
2018-12-19T05:54:19.746Z,0.71
2018-12-19T05:56:50.193Z,0.72
2018-12-19T05:59:20.052Z,0.66
2018-12-19T06:01:50.011Z,0.65
2018-12-19T06:04:19.905Z,0.68
2018-12-19T06:06:49.798Z,0.67
2018-12-19T06:09:19.654Z,0.65
2018-12-19T06:11:49.521Z,0.70
2018-12-19T06:14:19.388Z,0.72
2018-12-19T06:16:49.385Z,0.74
2018-12-19T06:19:19.267Z,0.72
2018-12-19T06:21:49.128Z,0.73
2018-12-19T06:24:18.950Z,0.79
2018-12-19T06:26:48.829Z,0.77
2018-12-19T06:29:18.678Z,0.80
2018-12-19T06:31:48.569Z,0.79
2018-12-19T06:34:18.449Z,0.78
2018-12-19T06:36:48.918Z,0.80
2018-12-19T06:39:18.971Z,0.82
2018-12-19T06:41:48.861Z,0.87
2018-12-19T06:44:19.313Z,0.85
2018-12-19T06:46:49.569Z,0.87
2018-12-19T06:49:19.493Z,0.89
2018-12-19T06:51:49.645Z,0.94
2018-12-19T06:54:19.509Z,0.92
2018-12-19T06:56:49.397Z,0.92
2018-12-19T06:59:19.237Z,0.93
2018-12-19T07:01:49.089Z,0.97
2018-12-19T07:04:18.937Z,0.99
2018-12-19T07:06:49.637Z,0.98
2018-12-19T07:09:19.691Z,0.92
2018-12-19T07:11:49.569Z,0.91
2018-12-19T07:14:19.434Z,0.92
2018-12-19T07:16:49.301Z,0.97
2018-12-19T07:19:19.141Z,0.93
2018-12-19T07:21:49.078Z,1.00
2018-12-19T07:24:18.988Z,0.94
2018-12-19T07:26:48.861Z,0.96
2018-12-19T07:29:18.784Z,0.99
2018-12-19T07:31:49.170Z,1.08
2018-12-19T07:34:19.002Z,1.13
2018-12-19T07:36:48.848Z,1.14
2018-12-19T07:39:19.124Z,1.18
2018-12-19T07:41:49.073Z,1.18
2018-12-19T07:44:18.938Z,1.22
2018-12-19T07:46:48.785Z,1.27
2018-12-19T07:49:19.173Z,1.30
2018-12-19T07:51:49.028Z,1.33
2018-12-19T07:54:19.450Z,1.38
2018-12-19T07:56:49.905Z,1.42
2018-12-19T07:59:19.753Z,1.44
2018-12-19T08:01:49.612Z,1.52
2018-12-19T08:04:19.645Z,1.54
2018-12-19T08:06:50.007Z,1.59
2018-12-19T08:09:20.560Z,1.62
2018-12-19T08:11:50.454Z,1.65
2018-12-19T08:14:20.463Z,1.65
2018-12-19T08:16:50.350Z,1.66
2018-12-19T08:19:21.715Z,1.70
2018-12-19T08:21:51.605Z,1.72
2018-12-19T08:24:21.462Z,1.80
2018-12-19T08:26:51.374Z,1.85
2018-12-19T08:29:21.260Z,1.90
2018-12-19T08:31:51.232Z,1.99
2018-12-19T08:34:21.214Z,2.03
2018-12-19T08:36:51.042Z,2.05
2018-12-19T08:39:21.256Z,2.07
2018-12-19T08:41:51.460Z,2.15
2018-12-19T08:44:21.292Z,2.21
2018-12-19T08:46:51.128Z,2.26
2018-12-19T08:49:20.923Z,2.31
2018-12-19T08:51:52.742Z,2.33
2018-12-19T08:54:22.576Z,2.35
2018-12-19T08:56:52.416Z,2.34
2018-12-19T08:59:22.267Z,2.41
2018-12-19T09:01:52.122Z,2.49
2018-12-19T09:04:25.813Z,2.47
2018-12-19T09:06:53.844Z,2.54
2018-12-19T09:09:23.708Z,2.54
2018-12-19T09:11:53.556Z,2.53
2018-12-19T09:14:23.475Z,2.53
2018-12-19T09:16:53.308Z,2.64
2018-12-19T09:19:23.180Z,2.68
2018-12-19T09:21:53.110Z,2.74
2018-12-19T09:24:23.513Z,2.74
2018-12-19T09:26:53.293Z,2.72
2018-12-19T09:29:23.107Z,2.74
2018-12-19T09:31:53.671Z,2.78
2018-12-19T09:34:23.669Z,2.77
2018-12-19T09:36:53.528Z,2.79
2018-12-19T09:39:23.403Z,2.82
2018-12-19T09:41:53.499Z,2.79
2018-12-19T09:44:23.325Z,2.90
2018-12-19T09:46:53.186Z,2.98
2018-12-19T09:49:23.083Z,3.09
2018-12-19T09:51:52.993Z,3.14
2018-12-19T09:54:22.822Z,3.22
2018-12-19T09:56:53.493Z,3.24
2018-12-19T09:59:23.524Z,3.35
2018-12-19T10:01:53.456Z,3.41
2018-12-19T10:04:23.383Z,3.48
2018-12-19T10:06:53.310Z,3.46
2018-12-19T10:09:23.338Z,3.49
2018-12-19T10:11:53.239Z,3.57
2018-12-19T10:14:23.145Z,3.64
2018-12-19T10:16:52.937Z,3.67
2018-12-19T10:19:22.763Z,3.66
2018-12-19T10:21:53.190Z,3.70
2018-12-19T10:24:27.764Z,3.74
2018-12-19T10:26:57.567Z,3.71
2018-12-19T10:29:27.390Z,3.71
2018-12-19T10:31:57.183Z,3.72
2018-12-19T10:34:27.013Z,3.74
2018-12-19T10:36:58.827Z,3.79
2018-12-19T10:39:28.630Z,3.85
2018-12-19T10:41:58.456Z,3.86
2018-12-19T10:44:28.380Z,3.87
2018-12-19T10:46:58.291Z,3.87
2018-12-19T10:49:28.228Z,3.86
2018-12-19T10:51:58.108Z,3.88
2018-12-19T10:54:27.935Z,3.93
2018-12-19T10:56:57.854Z,4.00
2018-12-19T10:59:27.798Z,3.95
2018-12-19T11:01:57.658Z,4.00
2018-12-19T11:04:27.472Z,4.02
2018-12-19T11:06:57.294Z,4.05
2018-12-19T11:09:27.238Z,4.09
2018-12-19T11:11:57.064Z,4.10
2018-12-19T11:14:27.126Z,4.13
2018-12-19T11:16:57.244Z,4.18
2018-12-19T11:19:27.104Z,4.17
2018-12-19T11:21:57.578Z,4.14
2018-12-19T11:24:27.450Z,4.12
2018-12-19T11:26:57.438Z,4.12
2018-12-19T11:29:28.400Z,4.10
2018-12-19T11:31:58.663Z,4.13
2018-12-19T11:34:28.528Z,4.14
2018-12-19T11:36:58.465Z,4.15
2018-12-19T11:39:28.468Z,4.18
2018-12-19T11:42:05.011Z,4.20
2018-12-19T11:44:35.093Z,4.23
2018-12-19T11:47:04.945Z,4.24
2018-12-19T11:49:34.897Z,4.28
2018-12-19T11:52:04.852Z,4.31
2018-12-19T11:54:34.685Z,4.33
2018-12-19T11:57:04.892Z,4.38
2018-12-19T11:59:35.198Z,4.43
2018-12-19T12:02:05.390Z,4.46
2018-12-19T12:04:36.027Z,4.47
2018-12-19T12:07:06.551Z,4.47
2018-12-19T12:09:36.448Z,4.52
2018-12-19T12:12:06.375Z,4.51
2018-12-19T12:14:37.100Z,4.55
2018-12-19T12:17:08.822Z,4.60
2018-12-19T12:19:38.901Z,4.65
2018-12-19T12:22:08.777Z,4.70
2018-12-19T13:58:48.110Z,4.72
2018-12-19T14:01:23.227Z,4.71
2018-12-19T14:03:58.505Z,4.70
2018-12-19T14:06:33.734Z,4.70
2018-12-19T14:09:08.890Z,4.67
2018-12-19T14:11:44.268Z,4.65
2018-12-19T14:14:19.447Z,4.65
2018-12-19T14:16:54.592Z,4.66
2018-12-19T14:19:29.932Z,4.62
2018-12-19T14:22:05.365Z,4.63
2018-12-19T14:24:42.018Z,4.61
2018-12-19T14:27:17.252Z,4.64
2018-12-19T14:29:52.291Z,4.64
2018-12-19T14:32:27.848Z,4.67
2018-12-19T14:35:02.885Z,4.67
2018-12-19T14:37:38.334Z,4.66
2018-12-19T14:40:14.251Z,4.63
2018-12-19T14:42:49.462Z,4.64
2018-12-19T14:45:24.611Z,4.66
2018-12-19T14:47:59.968Z,4.53
2018-12-19T14:50:35.163Z,4.57
2018-12-19T14:53:10.278Z,4.58
2018-12-19T14:55:45.530Z,4.54
2018-12-19T14:58:20.625Z,4.54
2018-12-19T15:00:55.817Z,4.56
2018-12-19T15:03:31.132Z,4.53
2018-12-19T15:06:06.509Z,4.53
2018-12-19T15:08:42.076Z,4.52
2018-12-19T15:11:17.014Z,4.54
2018-12-19T15:13:52.292Z,4.51
2018-12-19T15:16:27.588Z,4.53
2018-12-19T15:19:02.948Z,4.50
2018-12-19T15:21:38.140Z,4.45
2018-12-19T15:24:13.365Z,4.41
2018-12-19T15:26:48.505Z,4.37
2018-12-19T15:29:24.587Z,4.33
2018-12-19T15:31:59.905Z,4.30
2018-12-19T15:34:35.007Z,4.29
2018-12-19T15:37:10.262Z,4.25
2018-12-19T15:39:45.501Z,4.21
2018-12-19T15:42:20.695Z,4.17
2018-12-19T15:44:56.014Z,4.16
2018-12-19T15:47:31.586Z,4.13
2018-12-19T15:50:08.036Z,4.12
2018-12-19T15:52:43.186Z,4.08
2018-12-19T15:55:18.340Z,4.02
2018-12-19T15:57:54.138Z,3.98
2018-12-19T16:00:29.450Z,3.95
2018-12-19T16:03:05.176Z,3.92
2018-12-19T16:05:40.539Z,3.91
2018-12-19T16:08:15.769Z,3.88
2018-12-19T16:10:51.026Z,3.91
2018-12-19T16:13:26.449Z,3.90
2018-12-19T16:16:02.035Z,3.87
2018-12-19T16:18:37.031Z,3.84
2018-12-19T16:21:12.326Z,3.81
2018-12-19T16:23:47.353Z,3.79
2018-12-19T16:26:22.392Z,3.80
2018-12-19T16:28:57.700Z,3.77
2018-12-19T16:31:33.141Z,3.78
2018-12-19T16:34:08.280Z,3.76
2018-12-19T16:36:43.491Z,3.81
2018-12-19T16:39:18.571Z,3.75
2018-12-19T16:41:53.791Z,3.73
2018-12-19T16:44:29.048Z,3.80
2018-12-19T16:47:04.374Z,3.82
2018-12-19T16:49:39.461Z,3.82
2018-12-19T16:52:14.596Z,3.81
2018-12-19T16:54:49.988Z,3.86
2018-12-19T16:57:25.121Z,3.82
2018-12-19T17:00:00.295Z,3.77
2018-12-19T17:02:35.576Z,3.75
2018-12-19T17:05:10.636Z,3.68
2018-12-19T17:07:45.793Z,3.69
2018-12-19T17:10:20.930Z,3.67
2018-12-19T17:12:56.022Z,3.66
2018-12-19T17:15:31.408Z,3.65
2018-12-19T17:18:06.724Z,3.67
2018-12-19T17:20:42.255Z,3.66
2018-12-19T17:23:18.257Z,3.69
2018-12-19T17:25:53.436Z,3.72
2018-12-19T17:28:28.533Z,3.70
2018-12-19T17:31:03.732Z,3.71
2018-12-19T17:33:38.849Z,3.69
2018-12-19T17:36:14.673Z,3.67
2018-12-19T17:38:49.892Z,3.66
2018-12-19T17:41:25.060Z,3.64
2018-12-19T17:44:00.286Z,3.66
2018-12-19T17:46:35.374Z,3.67
2018-12-19T17:49:10.652Z,3.69
2018-12-19T17:51:45.620Z,3.68
2018-12-19T17:54:20.725Z,3.65
2018-12-19T17:56:56.163Z,3.63
2018-12-19T17:59:31.504Z,3.66
2018-12-19T18:02:06.763Z,3.62
2018-12-19T18:04:42.412Z,3.60
2018-12-19T18:07:17.671Z,3.56
2018-12-19T18:09:52.905Z,3.53
2018-12-19T18:12:28.081Z,3.49
2018-12-19T18:15:03.377Z,3.46
2018-12-19T18:17:38.579Z,3.49
2018-12-19T18:20:13.962Z,3.53
2018-12-19T18:22:49.358Z,3.48
2018-12-19T18:25:25.152Z,3.47
2018-12-19T18:28:00.350Z,3.46
2018-12-19T18:30:35.679Z,3.42
2018-12-19T18:33:11.050Z,3.37
2018-12-19T18:35:46.287Z,3.32
2018-12-19T18:38:22.365Z,3.28
2018-12-19T18:40:57.832Z,3.24
2018-12-19T18:43:32.902Z,3.20
2018-12-19T18:46:08.170Z,3.19
2018-12-19T18:48:43.632Z,3.21
2018-12-19T18:51:18.653Z,3.19
2018-12-19T18:53:53.872Z,3.11
2018-12-19T18:56:29.155Z,3.06
2018-12-19T18:59:04.501Z,3.05
2018-12-19T19:01:39.857Z,3.15
2018-12-19T19:04:15.153Z,3.14
2018-12-19T19:06:50.623Z,3.08
2018-12-19T19:09:26.087Z,3.07
2018-12-19T19:12:01.641Z,3.12
2018-12-19T19:14:37.087Z,3.20
2018-12-19T19:17:12.659Z,3.26
2018-12-19T19:19:47.878Z,3.22
2018-12-19T19:22:23.406Z,3.04
2018-12-19T19:24:59.733Z,2.87
2018-12-19T19:27:35.011Z,2.85
2018-12-19T19:30:11.018Z,2.77
2018-12-19T19:32:46.318Z,2.80
2018-12-19T19:35:22.061Z,2.69
2018-12-19T19:37:57.382Z,2.63
2018-12-19T19:40:32.932Z,2.54
2018-12-19T19:43:08.469Z,2.64
2018-12-19T19:45:43.625Z,2.67
2018-12-19T19:48:18.966Z,2.63
2018-12-19T19:50:54.202Z,2.64
2018-12-19T19:53:29.768Z,2.75
2018-12-19T19:56:05.275Z,2.82
2018-12-19T19:58:40.469Z,2.84
2018-12-19T20:01:15.750Z,2.84
2018-12-19T20:03:51.108Z,2.86
2018-12-19T20:06:26.584Z,2.91
2018-12-19T20:09:02.362Z,2.91
2018-12-19T20:11:37.494Z,2.74
2018-12-19T20:14:12.780Z,2.90
2018-12-19T20:16:53.575Z,2.86
2018-12-19T20:19:29.311Z,2.77
2018-12-19T20:22:05.733Z,2.65
2018-12-19T20:24:41.084Z,2.72
2018-12-19T20:27:16.485Z,2.72
2018-12-19T20:29:51.719Z,2.63
2018-12-19T20:32:27.529Z,2.73
2018-12-19T20:35:03.339Z,2.78
2018-12-19T20:37:38.748Z,2.66
2018-12-19T20:40:14.386Z,2.65
2018-12-19T20:42:49.568Z,2.69
2018-12-19T20:45:25.038Z,2.56
2018-12-19T20:48:00.888Z,2.68
2018-12-19T20:50:37.279Z,2.61
2018-12-19T20:53:12.643Z,2.67
2018-12-19T20:55:48.174Z,2.77
2018-12-19T20:58:23.289Z,2.86
2018-12-19T21:00:58.862Z,2.86
2018-12-19T21:03:34.953Z,2.78
2018-12-19T21:06:10.349Z,2.84
2018-12-19T21:08:46.263Z,2.82
2018-12-19T21:11:21.630Z,2.87
2018-12-19T21:13:57.110Z,2.79
2018-12-19T21:16:37.988Z,2.83
2018-12-19T21:19:13.349Z,2.83
2018-12-19T21:21:48.422Z,2.82
2018-12-19T21:24:24.609Z,2.87
2018-12-19T21:26:59.881Z,2.92
2018-12-19T21:29:35.217Z,2.92
2018-12-19T21:32:10.760Z,2.86
2018-12-19T21:34:46.248Z,2.87
2018-12-19T21:37:21.430Z,2.95
2018-12-19T21:39:56.774Z,3.04
2018-12-19T21:42:32.145Z,3.04
2018-12-19T21:45:07.830Z,3.16
2018-12-19T21:47:43.375Z,3.13
2018-12-19T21:50:19.410Z,3.08
2018-12-19T21:52:54.638Z,3.07
2018-12-19T21:55:30.013Z,3.11
2018-12-19T21:58:05.516Z,3.10
2018-12-19T22:00:41.357Z,3.14
2018-12-19T22:03:16.805Z,3.23
2018-12-19T22:05:52.272Z,3.29
2018-12-19T22:08:28.217Z,3.35
2018-12-19T22:11:03.867Z,3.39
2018-12-19T22:13:39.355Z,3.43
2018-12-19T22:16:20.002Z,3.48
2018-12-19T22:18:57.306Z,3.50
2018-12-19T22:21:32.861Z,3.54
2018-12-19T22:24:08.481Z,3.53
2018-12-19T22:26:43.742Z,3.58
2018-12-19T22:29:19.197Z,3.57
2018-12-19T22:31:54.466Z,3.56
2018-12-19T22:34:29.873Z,3.57
2018-12-19T22:37:05.319Z,3.59
2018-12-19T22:39:40.814Z,3.57
2018-12-19T22:42:16.399Z,3.59
2018-12-19T22:44:51.813Z,3.63
2018-12-19T22:47:28.072Z,3.64
2018-12-19T22:50:03.766Z,3.63
2018-12-19T22:52:39.233Z,3.66
2018-12-19T22:55:14.808Z,3.71
2018-12-19T22:57:50.037Z,3.69
2018-12-19T23:00:25.189Z,3.48
2018-12-19T23:03:05.784Z,3.47
2018-12-19T23:05:51.875Z,3.46
2018-12-19T23:08:26.947Z,3.46
2018-12-19T23:11:02.453Z,3.45
2018-12-19T23:13:38.073Z,3.39
2018-12-19T23:16:13.369Z,3.37
2018-12-19T23:18:48.812Z,3.36
2018-12-19T23:21:24.473Z,3.43
2018-12-19T23:23:59.778Z,3.48
2018-12-19T23:26:35.262Z,3.54
2018-12-19T23:29:10.446Z,3.57
2018-12-19T23:31:45.920Z,3.59
2018-12-19T23:34:22.086Z,3.56
2018-12-19T23:36:57.369Z,3.57
2018-12-19T23:39:32.609Z,3.59
2018-12-19T23:42:07.770Z,3.59
2018-12-19T23:44:43.392Z,3.61
2018-12-19T23:47:18.527Z,3.61
2018-12-19T23:49:53.594Z,3.59
2018-12-19T23:52:28.606Z,3.56
2018-12-19T23:55:05.533Z,3.55
2018-12-19T23:57:40.688Z,3.56
